Aviation Digital Data Service (ADDS)

Output produced by TAFs form (1913 UTC 27 July 2016)
found at http://aviationweather.gov/adds/tafs/
 
KEGE 271720Z 2718/2818 00000KT P6SM SKC 
     FM280200 09006KT P6SM SKC 
     FM280600 VRB03KT P6SM SKC 
     FM281200 00000KT P6SM SKC